Time;durP1;ratioP1;P1;durP2;ratioP2;P2;SDS_P1;SDS_P2;PMS_P1;PMS_P2;Temp;Humidity;BMP_temperature;BMP_pressure;BME280_temperature;BME280_humidity;BME280_pressure;Samples;Min_cycle;Max_cycle;Signal;HPM_P1;HPM_P2
2021/12/02 00:01:29;;;;;;;0.77;0.73;;;5.30;99.90;;;;;;5042389;28;20249;-87
2021/12/02 00:03:55;;;;;;;0.20;0.20;;;5.30;99.90;;;;;;5041029;28;20574;-88
2021/12/02 00:06:22;;;;;;;0.30;0.30;;;5.40;99.90;;;;;;5057041;28;20198;-86
2021/12/02 00:08:49;;;;;;;4.23;0.37;;;5.40;99.90;;;;;;5024499;28;20214;-84
2021/12/02 00:11:16;;;;;;;0.20;0.20;;;5.40;99.90;;;;;;5038308;28;20271;-85
2021/12/02 00:21:45;;;;;;;5.83;0.57;;;5.50;99.90;;;;;;5027418;28;21408;-84
2021/12/02 00:24:18;;;;;;;0.20;0.20;;;5.50;99.90;;;;;;5038178;28;20275;-84
2021/12/02 00:26:45;;;;;;;0.47;0.47;;;5.50;99.90;;;;;;5030775;28;20291;-84
2021/12/02 00:29:11;;;;;;;0.20;0.20;;;5.40;99.90;;;;;;5034462;28;20261;-88
2021/12/02 00:31:38;;;;;;;3.53;0.67;;;5.40;99.90;;;;;;5035932;28;20260;-86
2021/12/02 00:34:07;;;;;;;0.47;0.20;;;5.20;99.90;;;;;;5048440;28;20622;-87
2021/12/02 00:36:34;;;;;;;0.50;0.50;;;5.00;99.90;;;;;;5046115;28;20208;-87
2021/12/02 00:39:08;;;;;;;0.20;0.20;;;4.80;99.90;;;;;;5030379;28;20704;-87
2021/12/02 00:41:34;;;;;;;0.10;0.10;;;4.70;99.90;;;;;;5029810;28;20226;-88
2021/12/02 00:44:00;;;;;;;0.20;0.20;;;4.70;99.90;;;;;;5039440;28;20265;-87
2021/12/02 00:46:31;;;;;;;0.20;0.20;;;4.70;99.90;;;;;;5025971;28;20688;-90
2021/12/02 00:49:02;;;;;;;0.20;0.20;;;4.70;99.90;;;;;;5027173;28;20215;-88
2021/12/02 00:51:29;;;;;;;0.20;0.20;;;4.80;99.90;;;;;;5026859;28;20186;-84
2021/12/02 00:53:59;;;;;;;0.30;0.30;;;4.90;99.90;;;;;;5042431;28;20250;-87
2021/12/02 00:56:25;;;;;;;0.13;0.13;;;4.90;99.90;;;;;;5043041;28;20584;-87
2021/12/02 00:58:53;;;;;;;0.20;0.20;;;4.90;99.90;;;;;;5034964;28;20222;-86
2021/12/02 01:01:21;;;;;;;0.20;0.20;;;4.90;99.90;;;;;;5027477;28;20210;-86
2021/12/02 01:03:50;;;;;;;0.80;0.73;;;4.90;99.90;;;;;;5044664;28;20182;-86
2021/12/02 01:06:17;;;;;;;0.57;0.53;;;4.90;99.90;;;;;;5047582;28;20194;-85
2021/12/02 01:08:43;;;;;;;0.10;0.10;;;5.00;99.90;;;;;;5046380;28;20241;-87
2021/12/02 01:11:12;;;;;;;0.13;0.13;;;4.90;99.90;;;;;;5047699;28;20249;-84
2021/12/02 01:13:38;;;;;;;0.40;0.40;;;4.80;99.90;;;;;;5034935;28;20266;-85
2021/12/02 01:16:04;;;;;;;0.20;0.20;;;4.90;99.90;;;;;;5030872;28;20808;-86
2021/12/02 01:18:30;;;;;;;0.20;0.20;;;4.80;99.90;;;;;;5045928;28;20243;-85
2021/12/02 01:20:57;;;;;;;0.20;0.20;;;4.70;99.90;;;;;;5027032;28;20222;-87
2021/12/02 01:23:27;;;;;;;0.20;0.20;;;4.70;99.90;;;;;;5026008;28;20408;-89
2021/12/02 01:26:05;;;;;;;0.17;0.17;;;4.60;99.90;;;;;;5036154;28;20605;-87
2021/12/02 01:28:33;;;;;;;0.20;0.20;;;4.60;99.90;;;;;;5037005;28;20222;-85
2021/12/02 01:30:59;;;;;;;0.20;0.20;;;4.50;99.90;;;;;;5026036;28;20214;-86
2021/12/02 01:33:27;;;;;;;0.10;0.10;;;4.40;99.90;;;;;;5025790;28;21085;-86
2021/12/02 01:36:12;;;;;;;1.03;0.50;;;4.30;99.90;;;;;;5025206;28;20222;-84
2021/12/02 01:38:38;;;;;;;0.10;0.10;;;4.30;99.90;;;;;;5042132;28;20328;-87
2021/12/02 01:41:05;;;;;;;0.20;0.20;;;4.30;99.90;;;;;;5025053;28;20218;-87
2021/12/02 01:43:52;;;;;;;0.20;0.20;;;4.30;99.90;;;;;;5025794;28;20238;-88
2021/12/02 01:46:24;;;;;;;0.17;0.17;;;4.20;99.90;;;;;;5032226;28;20225;-89
2021/12/02 01:49:02;;;;;;;0.13;0.13;;;4.20;99.90;;;;;;5044999;28;20186;-85
2021/12/02 01:51:29;;;;;;;0.40;0.33;;;4.20;99.90;;;;;;5060613;28;20182;-87
2021/12/02 01:54:09;;;;;;;0.10;0.10;;;4.10;99.90;;;;;;5043307;28;20728;-85
2021/12/02 01:56:46;;;;;;;0.20;0.20;;;4.00;99.90;;;;;;5043170;28;20226;-86
2021/12/02 01:59:25;;;;;;;0.10;0.10;;;4.10;99.90;;;;;;5055569;28;20219;-86
2021/12/02 02:01:56;;;;;;;4.43;0.43;;;4.10;99.90;;;;;;5023922;28;20248;-86
2021/12/02 02:04:23;;;;;;;0.20;0.20;;;4.00;99.90;;;;;;5029866;28;20771;-86
2021/12/02 02:06:56;;;;;;;0.20;0.20;;;4.00;99.90;;;;;;5041165;28;20653;-84
2021/12/02 02:09:25;;;;;;;0.20;0.20;;;4.00;99.90;;;;;;5024978;28;20278;-87
2021/12/02 02:11:51;;;;;;;0.30;0.30;;;4.00;99.90;;;;;;5043013;28;20210;-87
2021/12/02 02:14:17;;;;;;;0.13;0.13;;;4.00;99.90;;;;;;5043995;28;20304;-87
2021/12/02 02:16:44;;;;;;;0.30;0.30;;;4.00;99.90;;;;;;5046094;28;20347;-87
2021/12/02 02:19:12;;;;;;;0.20;0.20;;;4.10;99.90;;;;;;5055215;28;20221;-87
2021/12/02 02:21:38;;;;;;;0.20;0.20;;;4.10;99.90;;;;;;5053727;28;20210;-87
2021/12/02 02:24:06;;;;;;;0.20;0.20;;;4.10;99.90;;;;;;5052372;28;20922;-86
2021/12/02 02:26:36;;;;;;;0.20;0.20;;;4.30;99.90;;;;;;5053020;28;20312;-88
2021/12/02 02:29:05;;;;;;;0.47;0.47;;;4.40;99.90;;;;;;5032267;28;20211;-87
2021/12/02 02:31:32;;;;;;;0.10;0.10;;;4.10;99.90;;;;;;5029567;28;20218;-83
2021/12/02 02:33:59;;;;;;;0.20;0.20;;;3.90;99.90;;;;;;5038907;28;20230;-91
2021/12/02 02:36:32;;;;;;;0.67;0.67;;;3.90;99.90;;;;;;5022708;28;20187;-85
2021/12/02 02:38:59;;;;;;;0.30;0.30;;;3.90;99.90;;;;;;5023174;28;20214;-88
2021/12/02 02:41:33;;;;;;;11.50;0.80;;;4.00;99.90;;;;;;5005652;28;20223;-86
2021/12/02 02:44:00;;;;;;;0.20;0.20;;;4.10;99.90;;;;;;5035345;28;20236;-87
2021/12/02 02:46:34;;;;;;;0.60;0.60;;;4.20;99.90;;;;;;5043466;28;20228;-87
2021/12/02 02:49:02;;;;;;;0.27;0.27;;;4.30;99.90;;;;;;5044524;28;20304;-87
2021/12/02 02:51:30;;;;;;;0.20;0.20;;;4.30;99.90;;;;;;5043596;28;20205;-87
2021/12/02 02:54:00;;;;;;;0.10;0.10;;;4.30;99.90;;;;;;5043365;28;20230;-85
2021/12/02 02:56:29;;;;;;;0.10;0.10;;;4.20;99.90;;;;;;5027484;28;20693;-88
2021/12/02 03:09:17;;;;;;;0.10;0.10;;;4.20;99.90;;;;;;5043902;28;20208;-85
2021/12/02 03:11:53;;;;;;;0.60;0.27;;;4.10;99.90;;;;;;5058405;28;20221;-86
2021/12/02 03:14:32;;;;;;;0.10;0.10;;;4.10;99.90;;;;;;5028824;28;20251;-87
2021/12/02 03:16:58;;;;;;;2.83;0.93;;;4.10;99.90;;;;;;5035892;28;20206;-87
2021/12/02 03:19:27;;;;;;;0.40;0.40;;;4.10;99.90;;;;;;5027596;28;20245;-87
2021/12/02 03:21:56;;;;;;;0.20;0.20;;;4.10;99.90;;;;;;5027479;28;20363;-87
2021/12/02 03:24:23;;;;;;;0.20;0.20;;;4.00;99.90;;;;;;5045208;28;20241;-87
2021/12/02 03:26:49;;;;;;;0.20;0.20;;;4.30;99.90;;;;;;5043651;28;20221;-89
2021/12/02 03:29:16;;;;;;;0.20;0.20;;;4.60;99.90;;;;;;5045614;28;20824;-87
2021/12/02 03:31:42;;;;;;;0.20;0.20;;;4.90;99.90;;;;;;5041882;28;20720;-87
2021/12/02 03:34:08;;;;;;;0.30;0.20;;;4.90;99.90;;;;;;5055898;28;20235;-88
2021/12/02 03:36:35;;;;;;;0.30;0.30;;;4.60;99.90;;;;;;5024705;28;20194;-88
2021/12/02 03:39:03;;;;;;;0.67;0.30;;;4.40;99.90;;;;;;5044152;28;20205;-85
2021/12/02 03:41:29;;;;;;;0.10;0.10;;;4.30;99.90;;;;;;5043834;28;20339;-88
2021/12/02 03:43:55;;;;;;;0.20;0.20;;;4.40;99.90;;;;;;5031792;28;20272;-87
2021/12/02 03:46:23;;;;;;;0.10;0.10;;;4.40;99.90;;;;;;5007057;28;20293;-88
2021/12/02 03:48:51;;;;;;;0.20;0.20;;;4.30;99.90;;;;;;5026402;28;20195;-88
2021/12/02 03:51:17;;;;;;;0.20;0.20;;;4.30;99.90;;;;;;5027083;28;20249;-89
2021/12/02 03:53:44;;;;;;;0.10;0.10;;;4.20;99.90;;;;;;5028332;28;20222;-87
2021/12/02 03:56:11;;;;;;;0.20;0.20;;;4.10;99.90;;;;;;5028396;28;20306;-88
2021/12/02 03:58:39;;;;;;;0.10;0.10;;;4.10;99.90;;;;;;5036099;28;20221;-87
2021/12/02 04:01:07;;;;;;;0.13;0.13;;;4.10;99.90;;;;;;5046540;28;20218;-88
2021/12/02 04:03:33;;;;;;;0.20;0.20;;;4.00;99.90;;;;;;5030169;28;20198;-84
2021/12/02 04:05:59;;;;;;;0.17;0.17;;;4.00;99.90;;;;;;5047763;28;20185;-86
2021/12/02 04:08:41;;;;;;;0.20;0.20;;;4.00;99.90;;;;;;5031140;28;21026;-86
2021/12/02 04:14:16;;;;;;;0.30;0.30;;;4.10;99.90;;;;;;5001208;28;20245;-85
2021/12/02 04:16:51;;;;;;;1.40;1.40;;;4.30;99.90;;;;;;5045836;28;20995;-85
2021/12/02 04:19:17;;;;;;;0.30;0.30;;;4.30;99.90;;;;;;5046503;28;20271;-86
2021/12/02 04:21:43;;;;;;;0.20;0.20;;;4.30;99.90;;;;;;5045776;28;20287;-87
2021/12/02 04:24:09;;;;;;;0.27;0.27;;;4.30;99.90;;;;;;5025744;28;20738;-86
2021/12/02 04:26:34;;;;;;;0.10;0.10;;;4.30;99.90;;;;;;5059326;28;20245;-87
2021/12/02 04:29:00;;;;;;;0.20;0.20;;;4.40;99.90;;;;;;5042846;28;20973;-87
2021/12/02 04:31:26;;;;;;;0.20;0.20;;;4.40;99.90;;;;;;5059210;28;20616;-86
2021/12/02 04:33:52;;;;;;;0.40;0.40;;;4.30;99.90;;;;;;5044782;28;20222;-86
2021/12/02 04:36:17;;;;;;;0.10;0.10;;;4.40;99.90;;;;;;5046899;28;20194;-85
2021/12/02 04:38:44;;;;;;;0.30;0.30;;;4.40;99.90;;;;;;5029106;28;20222;-86
2021/12/02 04:41:10;;;;;;;0.10;0.10;;;4.40;99.90;;;;;;5027162;28;20210;-86
2021/12/02 04:43:36;;;;;;;0.30;0.30;;;4.50;99.90;;;;;;5041544;28;20221;-85
2021/12/02 04:46:01;;;;;;;0.17;0.17;;;4.40;99.90;;;;;;5030908;28;20225;-86
2021/12/02 04:48:27;;;;;;;0.10;0.10;;;4.50;99.90;;;;;;5029439;28;20538;-86
2021/12/02 04:50:53;;;;;;;0.33;0.33;;;4.50;99.90;;;;;;5046346;28;20241;-85
2021/12/02 04:53:19;;;;;;;0.17;0.17;;;4.60;99.90;;;;;;5046295;28;20233;-86
2021/12/02 04:55:45;;;;;;;0.20;0.20;;;4.70;99.90;;;;;;5046614;28;20222;-87
2021/12/02 04:58:11;;;;;;;0.20;0.20;;;4.70;99.90;;;;;;5025324;28;20214;-86
2021/12/02 05:00:36;;;;;;;0.20;0.20;;;4.80;99.90;;;;;;5024530;28;20252;-88
2021/12/02 05:03:03;;;;;;;0.10;0.10;;;4.80;99.90;;;;;;5008187;28;20561;-85
2021/12/02 05:05:29;;;;;;;0.30;0.30;;;4.70;99.90;;;;;;5041848;28;20300;-85
2021/12/02 05:07:55;;;;;;;0.20;0.20;;;4.60;99.90;;;;;;5046265;28;20333;-86
2021/12/02 05:10:22;;;;;;;0.73;0.73;;;4.60;99.90;;;;;;5046641;28;20222;-85
2021/12/02 05:12:48;;;;;;;0.20;0.20;;;4.60;99.90;;;;;;5025988;28;20218;-85
2021/12/02 05:15:14;;;;;;;0.10;0.10;;;4.70;99.90;;;;;;5025775;28;20186;-85
2021/12/02 05:17:40;;;;;;;0.20;0.20;;;4.70;99.90;;;;;;5058333;28;20272;-86
2021/12/02 05:20:06;;;;;;;0.10;0.10;;;4.70;99.90;;;;;;5026444;28;20644;-86
2021/12/02 05:22:32;;;;;;;0.20;0.20;;;4.70;99.90;;;;;;5034150;28;20242;-85
2021/12/02 05:24:58;;;;;;;0.20;0.20;;;4.70;99.90;;;;;;5043817;28;20225;-87
2021/12/02 05:27:24;;;;;;;0.40;0.40;;;4.80;99.90;;;;;;5045163;28;20201;-86
2021/12/02 05:29:50;;;;;;;0.10;0.10;;;4.80;99.90;;;;;;5024422;28;20273;-86
2021/12/02 05:32:15;;;;;;;0.20;0.20;;;4.70;99.90;;;;;;5037944;28;20218;-86
2021/12/02 05:34:41;;;;;;;0.13;0.13;;;4.70;99.90;;;;;;5035925;28;20241;-86
2021/12/02 05:37:07;;;;;;;6.27;1.60;;;4.60;99.90;;;;;;5041313;28;20222;-86
2021/12/02 05:39:33;;;;;;;0.20;0.20;;;4.60;99.90;;;;;;5001166;28;20249;-87
2021/12/02 05:41:59;;;;;;;0.10;0.10;;;4.50;99.90;;;;;;5044844;28;20253;-86
2021/12/02 05:44:24;;;;;;;0.30;0.30;;;4.50;99.90;;;;;;5029801;28;20232;-86
2021/12/02 05:46:51;;;;;;;0.10;0.10;;;4.60;99.90;;;;;;5058014;28;20218;-87
2021/12/02 05:49:17;;;;;;;0.30;0.30;;;4.60;99.90;;;;;;5025813;28;20211;-87
2021/12/02 05:51:45;;;;;;;0.20;0.20;;;4.60;99.90;;;;;;5025864;28;20673;-89
2021/12/02 05:54:11;;;;;;;0.10;0.10;;;4.70;99.90;;;;;;5009228;28;20221;-86
2021/12/02 05:56:37;;;;;;;0.20;0.20;;;4.70;99.90;;;;;;5042064;28;20218;-86
2021/12/02 05:59:03;;;;;;;0.20;0.20;;;4.80;99.90;;;;;;5043409;28;20679;-86
2021/12/02 06:01:28;;;;;;;0.20;0.20;;;4.90;99.90;;;;;;5034692;28;20298;-88
2021/12/02 06:03:54;;;;;;;0.20;0.20;;;4.90;99.90;;;;;;5025058;28;20229;-87
2021/12/02 06:06:23;;;;;;;0.20;0.20;;;4.90;99.90;;;;;;5044657;28;20193;-87
2021/12/02 06:08:49;;;;;;;0.20;0.20;;;4.90;99.90;;;;;;5045618;28;20218;-87
2021/12/02 06:11:15;;;;;;;0.27;0.27;;;5.00;99.90;;;;;;5045858;28;20229;-87
2021/12/02 06:13:41;;;;;;;0.20;0.20;;;5.00;99.90;;;;;;5043931;28;20238;-88
2021/12/02 06:16:10;;;;;;;0.27;0.27;;;5.10;99.90;;;;;;5043555;28;20221;-88
2021/12/02 06:18:35;;;;;;;0.17;0.17;;;5.10;99.90;;;;;;5027265;28;20315;-87
2021/12/02 06:21:01;;;;;;;0.67;0.67;;;5.10;99.90;;;;;;5058064;28;20313;-90
2021/12/02 06:23:27;;;;;;;0.10;0.10;;;5.00;99.90;;;;;;5023275;28;20238;-87
2021/12/02 06:25:53;;;;;;;0.10;0.10;;;4.90;99.90;;;;;;5034782;28;20252;-90
2021/12/02 06:28:19;;;;;;;0.10;0.10;;;4.70;99.90;;;;;;5039066;28;20218;-85
2021/12/02 06:30:45;;;;;;;0.20;0.20;;;4.00;99.90;;;;;;5042737;28;20186;-87
2021/12/02 06:33:12;;;;;;;0.20;0.20;;;4.00;99.90;;;;;;5046633;28;20209;-89
2021/12/02 06:35:38;;;;;;;0.67;0.30;;;4.30;99.90;;;;;;5036728;28;20216;-92
2021/12/02 06:38:04;;;;;;;0.20;0.20;;;4.40;99.90;;;;;;5029929;28;20222;-89
2021/12/02 06:40:31;;;;;;;0.20;0.20;;;4.30;99.90;;;;;;5022657;28;20271;-84
2021/12/02 06:42:57;;;;;;;0.30;0.30;;;4.30;99.90;;;;;;4998097;28;20222;-85
2021/12/02 06:45:23;;;;;;;0.40;0.40;;;4.30;99.90;;;;;;5025805;28;20221;-86
2021/12/02 06:47:51;;;;;;;0.20;0.20;;;4.30;99.90;;;;;;5024794;28;20214;-85
2021/12/02 06:50:19;;;;;;;1.50;0.23;;;4.50;99.90;;;;;;5039311;28;20301;-85
2021/12/02 06:52:50;;;;;;;0.10;0.10;;;4.50;99.90;;;;;;5033731;28;20318;-87
2021/12/02 06:55:16;;;;;;;1.27;0.50;;;4.60;99.90;;;;;;5020876;28;20218;-87
2021/12/02 06:57:42;;;;;;;0.27;0.27;;;4.50;99.90;;;;;;5019819;28;20202;-87
2021/12/02 07:00:11;;;;;;;0.40;0.40;;;4.50;99.90;;;;;;5040675;28;20183;-88
2021/12/02 07:02:38;;;;;;;0.10;0.10;;;4.50;99.90;;;;;;5024558;28;20210;-85
2021/12/02 07:05:06;;;;;;;0.20;0.20;;;4.50;99.90;;;;;;5036931;28;20222;-89
2021/12/02 07:07:36;;;;;;;0.20;0.20;;;4.50;99.90;;;;;;5044197;28;20280;-88
2021/12/02 07:10:07;;;;;;;0.20;0.20;;;4.50;99.90;;;;;;5025783;28;20228;-86
2021/12/02 07:12:33;;;;;;;0.10;0.10;;;4.50;99.90;;;;;;5043063;28;20281;-87
2021/12/02 07:15:09;;;;;;;0.10;0.10;;;4.60;99.90;;;;;;5043392;28;20221;-91
2021/12/02 07:17:35;;;;;;;0.10;0.10;;;4.60;99.90;;;;;;5025877;28;20715;-85
2021/12/02 07:20:01;;;;;;;0.20;0.20;;;4.70;99.90;;;;;;5021680;28;20222;-86
2021/12/02 07:22:28;;;;;;;0.10;0.10;;;4.60;99.90;;;;;;5032902;28;20287;-86
2021/12/02 07:24:53;;;;;;;0.50;0.50;;;4.60;99.90;;;;;;5048241;28;20312;-87
2021/12/02 07:27:19;;;;;;;0.20;0.20;;;4.60;99.90;;;;;;5048164;28;20318;-85
2021/12/02 07:29:45;;;;;;;0.20;0.20;;;4.60;99.90;;;;;;5045159;28;20208;-86
2021/12/02 07:32:12;;;;;;;0.20;0.20;;;4.60;99.90;;;;;;5041259;28;20221;-87
2021/12/02 07:34:43;;;;;;;0.20;0.20;;;4.50;99.90;;;;;;5038157;28;20732;-87
2021/12/02 07:37:13;;;;;;;0.20;0.20;;;4.50;99.90;;;;;;5022435;28;20221;-92
2021/12/02 07:39:39;;;;;;;1.07;1.07;;;4.50;99.90;;;;;;5046784;28;20641;-86
2021/12/02 07:42:05;;;;;;;0.20;0.20;;;4.50;99.90;;;;;;5048023;28;20190;-87
2021/12/02 07:44:34;;;;;;;0.10;0.10;;;4.70;99.90;;;;;;5029645;28;20242;-88
2021/12/02 07:47:01;;;;;;;0.10;0.10;;;4.80;99.90;;;;;;5038695;28;20213;-88
2021/12/02 07:49:27;;;;;;;0.20;0.20;;;5.00;99.90;;;;;;5040086;28;20222;-88
2021/12/02 07:51:59;;;;;;;0.20;0.20;;;5.10;99.90;;;;;;5026392;28;20225;-85
2021/12/02 07:54:26;;;;;;;0.20;0.20;;;5.20;99.90;;;;;;5028619;28;20210;-85
2021/12/02 07:56:53;;;;;;;0.20;0.20;;;5.20;99.90;;;;;;5045860;28;20236;-86
2021/12/02 07:59:20;;;;;;;0.10;0.10;;;5.30;99.90;;;;;;5032665;28;20226;-86
2021/12/02 08:01:49;;;;;;;0.10;0.10;;;5.40;99.90;;;;;;5028644;28;20222;-88
2021/12/02 08:04:15;;;;;;;0.20;0.20;;;5.40;99.90;;;;;;5032920;28;20300;-89
2021/12/02 08:06:41;;;;;;;0.13;0.13;;;5.40;99.90;;;;;;5044295;28;20343;-86
2021/12/02 08:09:10;;;;;;;0.27;0.27;;;5.30;99.90;;;;;;5027642;28;20194;-90
2021/12/02 08:11:36;;;;;;;0.20;0.20;;;5.40;99.90;;;;;;5041799;28;20222;-86
2021/12/02 08:14:03;;;;;;;0.10;0.10;;;5.40;99.90;;;;;;5025432;28;20579;-87
2021/12/02 08:16:28;;;;;;;0.20;0.20;;;5.40;99.90;;;;;;5043888;28;20736;-89
2021/12/02 08:18:54;;;;;;;0.10;0.10;;;5.40;99.90;;;;;;5029979;28;20226;-89
2021/12/02 08:21:20;;;;;;;2.77;1.70;;;5.40;99.90;;;;;;5046462;28;20273;-86
2021/12/02 08:23:46;;;;;;;0.23;0.23;;;5.30;99.90;;;;;;5045798;28;20243;-85
2021/12/02 08:26:13;;;;;;;0.20;0.20;;;5.40;99.90;;;;;;5033447;28;20218;-86
2021/12/02 08:28:41;;;;;;;0.30;0.30;;;5.50;99.90;;;;;;5026695;28;20226;-87
2021/12/02 08:31:07;;;;;;;0.20;0.20;;;5.50;99.90;;;;;;5025691;28;20577;-86
2021/12/02 08:33:33;;;;;;;0.23;0.23;;;5.60;99.90;;;;;;5038943;28;20218;-85
2021/12/02 08:35:59;;;;;;;0.10;0.10;;;5.60;99.90;;;;;;5038750;28;20700;-93
2021/12/02 08:38:35;;;;;;;0.30;0.30;;;5.60;99.90;;;;;;5046653;28;20655;-92
2021/12/02 08:41:02;;;;;;;0.20;0.20;;;5.60;99.90;;;;;;5025202;28;21053;-90
2021/12/02 08:43:30;;;;;;;0.53;0.30;;;5.50;99.90;;;;;;5033087;28;20680;-88
2021/12/02 08:45:56;;;;;;;0.20;0.20;;;5.50;99.90;;;;;;5044249;28;20371;-86
2021/12/02 08:48:22;;;;;;;0.10;0.10;;;5.50;99.90;;;;;;5044746;28;20232;-86
2021/12/02 08:50:48;;;;;;;0.10;0.10;;;5.50;99.90;;;;;;5026044;28;20214;-85
2021/12/02 08:53:14;;;;;;;0.10;0.10;;;5.50;99.90;;;;;;5061520;28;20228;-87
2021/12/02 08:55:41;;;;;;;0.20;0.20;;;5.50;99.90;;;;;;5036213;28;20221;-90
2021/12/02 08:58:09;;;;;;;0.20;0.20;;;5.50;99.90;;;;;;5031794;28;20740;-87
2021/12/02 09:00:39;;;;;;;0.10;0.10;;;5.70;99.90;;;;;;5062832;28;20225;-87
2021/12/02 09:03:12;;;;;;;0.20;0.20;;;5.70;99.90;;;;;;5059459;28;20300;-90
2021/12/02 09:05:39;;;;;;;0.10;0.10;;;5.70;99.90;;;;;;5042713;28;20222;-85
2021/12/02 09:08:06;;;;;;;7.73;0.50;;;5.70;99.90;;;;;;5033677;28;20300;-85
2021/12/02 09:10:33;;;;;;;0.10;0.10;;;5.70;99.90;;;;;;5034383;28;20222;-86
2021/12/02 09:13:07;;;;;;;0.17;0.17;;;5.60;99.90;;;;;;5045087;28;20336;-87
2021/12/02 09:15:33;;;;;;;0.20;0.20;;;5.70;99.90;;;;;;5045084;28;20198;-87
2021/12/02 09:17:59;;;;;;;0.30;0.30;;;5.80;99.90;;;;;;5025733;28;20256;-87
2021/12/02 09:20:25;;;;;;;0.30;0.30;;;5.80;99.90;;;;;;5058145;28;20895;-89
2021/12/02 09:22:53;;;;;;;2.00;1.90;;;5.80;99.90;;;;;;5024925;28;20234;-86
2021/12/02 09:25:22;;;;;;;0.33;0.33;;;5.90;99.90;;;;;;5025616;28;21089;-87
2021/12/02 09:27:48;;;;;;;0.10;0.10;;;5.90;99.90;;;;;;5017224;28;20214;-88
2021/12/02 09:30:15;;;;;;;0.10;0.10;;;6.00;99.90;;;;;;5026112;28;20210;-89
2021/12/02 09:32:41;;;;;;;0.20;0.20;;;6.20;99.90;;;;;;5042619;28;20221;-87
2021/12/02 09:35:09;;;;;;;2.07;0.60;;;6.40;99.90;;;;;;5043820;28;20229;-89
2021/12/02 09:37:35;;;;;;;0.10;0.10;;;6.60;99.90;;;;;;5037673;28;20441;-86
2021/12/02 09:40:00;;;;;;;0.10;0.10;;;6.80;99.90;;;;;;5012324;28;20225;-87
2021/12/02 09:42:26;;;;;;;0.23;0.23;;;6.90;99.90;;;;;;5028007;28;20204;-85
2021/12/02 09:45:01;;;;;;;0.10;0.10;;;6.90;99.90;;;;;;5044024;28;20729;-87
2021/12/02 09:47:32;;;;;;;0.20;0.20;;;6.90;99.90;;;;;;5022427;28;20216;-86
2021/12/02 09:50:06;;;;;;;0.20;0.20;;;6.70;99.90;;;;;;5025121;28;20222;-88
2021/12/02 09:52:36;;;;;;;0.13;0.13;;;6.10;99.90;;;;;;5025548;28;21131;-91
2021/12/02 09:55:08;;;;;;;2.93;1.33;;;5.30;99.90;;;;;;5025697;28;20280;-90
2021/12/02 09:57:39;;;;;;;0.30;0.30;;;4.90;99.90;;;;;;5026869;28;20523;-86
2021/12/02 10:00:06;;;;;;;0.20;0.20;;;4.70;99.90;;;;;;5025682;28;20193;-87
2021/12/02 10:02:40;;;;;;;0.20;0.20;;;4.70;99.90;;;;;;5039170;28;20755;-90
2021/12/02 10:05:08;;;;;;;0.30;0.30;;;4.70;99.90;;;;;;5042949;28;20217;-87
2021/12/02 10:07:50;;;;;;;0.20;0.20;;;4.70;99.90;;;;;;5026870;28;20221;-88
2021/12/02 10:10:32;;;;;;;0.37;0.37;;;4.60;99.90;;;;;;5042438;28;20227;-87
2021/12/02 10:16:31;;;;;;;0.20;0.20;;;4.60;99.90;;;;;;5035207;28;20564;-85
2021/12/02 10:21:41;;;;;;;0.20;0.20;;;4.40;99.90;;;;;;5036450;28;20198;-86
2021/12/02 10:24:23;;;;;;;0.30;0.30;;;4.50;99.90;;;;;;5043304;28;20233;-85
2021/12/02 10:27:04;;;;;;;0.27;0.27;;;4.60;99.90;;;;;;5058912;28;20268;-86
2021/12/02 10:29:38;;;;;;;0.20;0.20;;;4.60;99.90;;;;;;5042972;28;20216;-91
2021/12/02 10:32:12;;;;;;;0.20;0.20;;;4.70;99.90;;;;;;5044980;28;20214;-92
2021/12/02 10:34:55;;;;;;;0.17;0.17;;;4.80;99.90;;;;;;5047614;28;20236;-85
2021/12/02 10:37:24;;;;;;;0.20;0.20;;;4.80;99.90;;;;;;5038695;28;20218;-85
2021/12/02 10:40:12;;;;;;;0.20;0.20;;;4.80;99.90;;;;;;5025161;28;20216;-86
2021/12/02 10:42:43;;;;;;;0.20;0.20;;;4.90;99.90;;;;;;5025365;28;20191;-86
2021/12/02 10:45:22;;;;;;;0.20;0.20;;;5.00;99.90;;;;;;5050380;28;20194;-87
2021/12/02 10:47:50;;;;;;;0.37;0.37;;;5.10;99.90;;;;;;5044492;28;20195;-90
2021/12/02 10:50:16;;;;;;;0.40;0.40;;;5.20;99.90;;;;;;5042992;28;20400;-90
2021/12/02 10:52:42;;;;;;;0.13;0.13;;;5.30;99.90;;;;;;5024583;28;20241;-89
2021/12/02 10:55:11;;;;;;;0.20;0.20;;;5.30;99.90;;;;;;5018490;28;20230;-88
2021/12/02 10:57:44;;;;;;;0.30;0.30;;;5.40;99.90;;;;;;5027216;28;20225;-90
2021/12/02 11:00:14;;;;;;;0.20;0.20;;;5.60;99.90;;;;;;5047839;28;20194;-87
2021/12/02 11:02:46;;;;;;;0.20;0.20;;;5.80;99.90;;;;;;5038991;28;20250;-87
2021/12/02 11:05:23;;;;;;;0.20;0.20;;;5.90;99.90;;;;;;5040243;28;20304;-89
2021/12/02 11:08:10;;;;;;;0.20;0.20;;;6.00;99.90;;;;;;5045301;28;20218;-88
2021/12/02 11:10:47;;;;;;;0.30;0.30;;;6.10;99.90;;;;;;5043573;28;20210;-89
2021/12/02 11:13:19;;;;;;;0.20;0.20;;;6.10;99.90;;;;;;5038246;28;20250;-91
2021/12/02 11:15:45;;;;;;;0.10;0.10;;;6.20;99.90;;;;;;5058753;28;20190;-89
2021/12/02 11:18:15;;;;;;;0.10;0.10;;;6.20;99.90;;;;;;5028576;28;20198;-89
2021/12/02 11:20:45;;;;;;;0.20;0.20;;;6.30;99.90;;;;;;5017593;28;20206;-92
2021/12/02 11:23:17;;;;;;;0.57;0.30;;;6.30;99.90;;;;;;5038651;28;21200;-90
2021/12/02 11:26:05;;;;;;;0.20;0.20;;;6.30;99.90;;;;;;5044736;28;20230;-92
2021/12/02 11:28:33;;;;;;;0.20;0.20;;;6.30;99.90;;;;;;5043256;28;20222;-89
2021/12/02 11:31:09;;;;;;;0.10;0.10;;;6.30;99.90;;;;;;5025743;28;20241;-92
2021/12/02 11:33:38;;;;;;;4.80;0.30;;;6.30;99.90;;;;;;5033179;28;20272;-87
2021/12/02 11:36:22;;;;;;;0.50;0.50;;;6.20;99.90;;;;;;5039529;28;20182;-90
2021/12/02 11:38:52;;;;;;;0.20;0.20;;;6.10;99.90;;;;;;5031779;28;20325;-88
2021/12/02 11:41:19;;;;;;;0.30;0.30;;;6.00;99.90;;;;;;5015507;28;20673;-87
2021/12/02 11:43:46;;;;;;;0.30;0.30;;;6.00;99.90;;;;;;5016701;28;20218;-88
2021/12/02 11:46:12;;;;;;;0.20;0.20;;;6.10;99.90;;;;;;5022062;28;20226;-90
2021/12/02 11:48:41;;;;;;;0.10;0.10;;;6.20;99.90;;;;;;5023727;28;20206;-89
2021/12/02 11:51:16;;;;;;;0.20;0.20;;;6.20;99.90;;;;;;5046090;28;20399;-90
2021/12/02 11:53:45;;;;;;;0.20;0.20;;;6.20;99.90;;;;;;5028025;28;20766;-89
2021/12/02 11:56:14;;;;;;;0.20;0.20;;;6.20;99.90;;;;;;5058561;28;20234;-89
2021/12/02 11:58:41;;;;;;;0.10;0.10;;;6.30;99.90;;;;;;5034353;28;20222;-87
2021/12/02 12:01:18;;;;;;;0.10;0.10;;;6.30;99.90;;;;;;5043129;28;20291;-88
2021/12/02 12:03:48;;;;;;;0.17;0.17;;;6.40;99.90;;;;;;5044283;28;20204;-89
2021/12/02 12:06:32;;;;;;;0.20;0.20;;;6.30;99.90;;;;;;5056540;28;20190;-87
2021/12/02 12:08:58;;;;;;;7.07;0.53;;;6.40;99.90;;;;;;5048310;28;20206;-88
2021/12/02 12:11:33;;;;;;;0.20;0.20;;;6.40;99.90;;;;;;5065928;28;20233;-85
2021/12/02 12:14:04;;;;;;;0.30;0.30;;;6.40;99.90;;;;;;5049058;28;20284;-89
2021/12/02 12:16:33;;;;;;;0.40;0.40;;;6.50;99.90;;;;;;5041048;28;20369;-86
2021/12/02 12:19:20;;;;;;;2.17;0.40;;;6.50;99.90;;;;;;5033113;28;20251;-88
2021/12/02 12:21:57;;;;;;;0.30;0.30;;;6.50;99.90;;;;;;5063615;28;20298;-90
2021/12/02 12:24:47;;;;;;;0.20;0.20;;;6.60;99.90;;;;;;5048747;28;20235;-87
2021/12/02 12:27:23;;;;;;;0.20;0.20;;;6.60;99.90;;;;;;5046055;28;20232;-86
2021/12/02 12:30:06;;;;;;;0.77;0.77;;;6.70;99.90;;;;;;5042482;28;20282;-85
2021/12/02 12:33:02;;;;;;;0.20;0.20;;;6.70;99.90;;;;;;5026665;28;20222;-86
2021/12/02 12:38:03;;;;;;;0.27;0.27;;;6.90;99.90;;;;;;5034383;28;20221;-85
2021/12/02 12:40:41;;;;;;;0.10;0.10;;;6.90;99.90;;;;;;5026610;28;20717;-86
2021/12/02 12:43:07;;;;;;;0.20;0.20;;;7.10;99.90;;;;;;5058965;28;20225;-84
2021/12/02 12:45:37;;;;;;;0.20;0.20;;;7.10;99.90;;;;;;5026314;28;20199;-86
2021/12/02 12:48:09;;;;;;;0.30;0.30;;;7.30;99.90;;;;;;5027800;28;20727;-88
2021/12/02 12:50:44;;;;;;;0.97;0.20;;;7.70;99.90;;;;;;5025151;28;20622;-87
2021/12/02 12:53:15;;;;;;;0.20;0.20;;;7.80;99.90;;;;;;5025822;28;20218;-87
2021/12/02 12:56:06;;;;;;;0.40;0.40;;;7.90;99.90;;;;;;5036919;28;20271;-87
2021/12/02 12:58:56;;;;;;;0.20;0.20;;;8.00;99.90;;;;;;5051223;28;20210;-87
2021/12/02 13:01:26;;;;;;;1.40;0.93;;;7.90;99.90;;;;;;5025975;28;20551;-86
2021/12/02 13:04:17;;;;;;;0.50;0.50;;;7.90;99.90;;;;;;5024275;28;20186;-87
2021/12/02 13:07:13;;;;;;;0.20;0.20;;;7.90;99.90;;;;;;5021970;28;20210;-87
2021/12/02 13:09:48;;;;;;;1.90;0.40;;;8.00;99.90;;;;;;5044481;28;20194;-84
2021/12/02 13:12:19;;;;;;;2.23;0.33;;;8.00;99.90;;;;;;5027020;28;20601;-88
2021/12/02 13:14:47;;;;;;;2.87;0.47;;;7.40;99.90;;;;;;5045027;28;20224;-86
2021/12/02 13:17:37;;;;;;;0.00;0.00;;;7.20;99.90;;;;;;5046166;28;20927;-87
2021/12/02 13:20:23;;;;;;;0.20;0.20;;;7.10;99.90;;;;;;5045874;28;20226;-85
2021/12/02 13:23:17;;;;;;;0.10;0.10;;;6.80;99.90;;;;;;5061786;28;20234;-86
2021/12/02 13:25:54;;;;;;;0.30;0.30;;;6.50;99.90;;;;;;5062127;28;20219;-87
2021/12/02 13:28:27;;;;;;;1.10;0.63;;;6.10;99.90;;;;;;5046232;28;20216;-87
2021/12/02 13:31:00;;;;;;;9.23;0.30;;;5.60;99.90;;;;;;5046749;28;20657;-87
2021/12/02 13:33:42;;;;;;;0.20;0.20;;;5.40;99.90;;;;;;5044223;28;20221;-87
2021/12/02 13:36:11;;;;;;;0.27;0.27;;;5.20;99.90;;;;;;5046259;28;20218;-86
2021/12/02 13:38:38;;;;;;;1.50;0.47;;;5.00;99.90;;;;;;5039137;28;20214;-90
2021/12/02 13:41:12;;;;;;;0.20;0.20;;;4.90;99.90;;;;;;5058879;28;20247;-88